sensor_id;sensor_type;location;lat;lon;timestamp;pressure;altitude;pressure_sealevel;temperature;humidity
21359;BME280;13506;50.852;20.632;2023-12-04T00:01:58;98713.72;;;-4.17;90.69
21359;BME280;13506;50.852;20.632;2023-12-04T00:04:27;98716.28;;;-4.19;90.36
21359;BME280;13506;50.852;20.632;2023-12-04T00:06:55;98710.34;;;-4.19;90.25
21359;BME280;13506;50.852;20.632;2023-12-04T00:09:23;98707.75;;;-4.16;90.24
21359;BME280;13506;50.852;20.632;2023-12-04T00:11:51;98708.59;;;-4.11;90.72
21359;BME280;13506;50.852;20.632;2023-12-04T00:14:19;98689.91;;;-4.19;89.28
21359;BME280;13506;50.852;20.632;2023-12-04T00:16:48;98700.06;;;-4.13;90.14
21359;BME280;13506;50.852;20.632;2023-12-04T00:19:16;98701.81;;;-4.17;90.33
21359;BME280;13506;50.852;20.632;2023-12-04T00:21:44;98699.25;;;-4.18;90.36
21359;BME280;13506;50.852;20.632;2023-12-04T00:24:12;98701.81;;;-4.18;90.11
21359;BME280;13506;50.852;20.632;2023-12-04T00:26:40;98700.97;;;-4.17;90.42
21359;BME280;13506;50.852;20.632;2023-12-04T00:29:08;98703.50;;;-4.17;90.04
21359;BME280;13506;50.852;20.632;2023-12-04T00:31:37;98709.50;;;-4.20;89.74
21359;BME280;13506;50.852;20.632;2023-12-04T00:34:06;98713.78;;;-4.26;89.34
21359;BME280;13506;50.852;20.632;2023-12-04T00:36:34;98702.72;;;-4.28;90.49
21359;BME280;13506;50.852;20.632;2023-12-04T00:39:03;98701.91;;;-4.34;90.44
21359;BME280;13506;50.852;20.632;2023-12-04T00:41:32;98711.28;;;-4.36;90.10
21359;BME280;13506;50.852;20.632;2023-12-04T00:43:59;98707.94;;;-4.44;90.72
21359;BME280;13506;50.852;20.632;2023-12-04T00:46:27;98701.97;;;-4.47;90.54
21359;BME280;13506;50.852;20.632;2023-12-04T00:48:55;98701.97;;;-4.47;91.18
21359;BME280;13506;50.852;20.632;2023-12-04T00:51:24;98711.34;;;-4.45;91.38
21359;BME280;13506;50.852;20.632;2023-12-04T00:53:53;98704.53;;;-4.47;91.15
21359;BME280;13506;50.852;20.632;2023-12-04T00:56:21;98708.00;;;-4.51;91.22
21359;BME280;13506;50.852;20.632;2023-12-04T00:58:48;98715.66;;;-4.56;91.72
21359;BME280;13506;50.852;20.632;2023-12-04T01:01:17;98728.44;;;-4.59;91.27
21359;BME280;13506;50.852;20.632;2023-12-04T01:03:44;98722.50;;;-4.63;91.62
21359;BME280;13506;50.852;20.632;2023-12-04T01:06:20;98716.53;;;-4.59;91.88
21359;BME280;13506;50.852;20.632;2023-12-04T01:08:51;98722.50;;;-4.60;91.81
21359;BME280;13506;50.852;20.632;2023-12-04T01:11:19;98715.69;;;-4.62;92.32
21359;BME280;13506;50.852;20.632;2023-12-04T01:13:47;98716.56;;;-4.62;92.39
21359;BME280;13506;50.852;20.632;2023-12-04T01:16:16;98723.34;;;-4.59;92.49
21359;BME280;13506;50.852;20.632;2023-12-04T01:18:44;98722.50;;;-4.60;92.43
21359;BME280;13506;50.852;20.632;2023-12-04T01:21:12;98724.19;;;-4.60;92.50
21359;BME280;13506;50.852;20.632;2023-12-04T01:23:39;98720.78;;;-4.62;92.01
21359;BME280;13506;50.852;20.632;2023-12-04T01:26:10;98724.19;;;-4.60;92.36
21359;BME280;13506;50.852;20.632;2023-12-04T01:28:38;98724.19;;;-4.57;92.17
21359;BME280;13506;50.852;20.632;2023-12-04T01:31:07;98723.31;;;-4.56;91.93
21359;BME280;13506;50.852;20.632;2023-12-04T01:33:33;98725.06;;;-4.63;92.45
21359;BME280;13506;50.852;20.632;2023-12-04T01:36:02;98720.81;;;-4.65;92.78
21359;BME280;13506;50.852;20.632;2023-12-04T01:38:30;98730.16;;;-4.63;93.22
21359;BME280;13506;50.852;20.632;2023-12-04T01:40:58;98730.16;;;-4.60;93.29
21359;BME280;13506;50.852;20.632;2023-12-04T01:43:27;98734.41;;;-4.63;92.37
21359;BME280;13506;50.852;20.632;2023-12-04T01:45:56;98729.34;;;-4.66;93.20
21359;BME280;13506;50.852;20.632;2023-12-04T01:48:25;98720.81;;;-4.67;92.66
21359;BME280;13506;50.852;20.632;2023-12-04T01:50:54;98720.81;;;-4.65;92.53
21359;BME280;13506;50.852;20.632;2023-12-04T01:53:23;98727.66;;;-4.70;92.47
21359;BME280;13506;50.852;20.632;2023-12-04T01:55:51;98714.88;;;-4.69;92.74
21359;BME280;13506;50.852;20.632;2023-12-04T01:58:19;98711.47;;;-4.71;92.98
21359;BME280;13506;50.852;20.632;2023-12-04T02:00:49;98722.56;;;-4.74;92.82
21359;BME280;13506;50.852;20.632;2023-12-04T02:03:17;98726.81;;;-4.74;93.21
21359;BME280;13506;50.852;20.632;2023-12-04T02:05:47;98724.28;;;-4.79;93.44
21359;BME280;13506;50.852;20.632;2023-12-04T02:08:15;98725.16;;;-4.81;93.42
21359;BME280;13506;50.852;20.632;2023-12-04T02:10:43;98717.44;;;-4.74;94.03
21359;BME280;13506;50.852;20.632;2023-12-04T02:13:11;98733.59;;;-4.68;93.92
21359;BME280;13506;50.852;20.632;2023-12-04T02:15:39;98720.81;;;-4.65;93.93
21359;BME280;13506;50.852;20.632;2023-12-04T02:18:09;98720.78;;;-4.59;93.54
21359;BME280;13506;50.852;20.632;2023-12-04T02:20:37;98720.78;;;-4.59;92.77
21359;BME280;13506;50.852;20.632;2023-12-04T02:23:06;98718.19;;;-4.56;93.02
21359;BME280;13506;50.852;20.632;2023-12-04T02:25:35;98714.78;;;-4.50;92.52
21359;BME280;13506;50.852;20.632;2023-12-04T02:28:07;98713.94;;;-4.49;92.72
21359;BME280;13506;50.852;20.632;2023-12-04T02:30:43;98707.97;;;-4.48;92.83
21359;BME280;13506;50.852;20.632;2023-12-04T02:33:13;98710.50;;;-4.50;92.33
21359;BME280;13506;50.852;20.632;2023-12-04T02:35:42;98701.16;;;-4.45;92.22
21359;BME280;13506;50.852;20.632;2023-12-04T02:38:11;98713.91;;;-4.48;91.91
21359;BME280;13506;50.852;20.632;2023-12-04T02:40:41;98716.44;;;-4.43;92.17
21359;BME280;13506;50.852;20.632;2023-12-04T02:43:10;98708.78;;;-4.42;92.26
21359;BME280;13506;50.852;20.632;2023-12-04T02:45:38;98702.81;;;-4.42;92.29
21359;BME280;13506;50.852;20.632;2023-12-04T02:48:07;98700.28;;;-4.45;92.18
21359;BME280;13506;50.852;20.632;2023-12-04T02:50:37;98707.94;;;-4.44;92.54
21359;BME280;13506;50.852;20.632;2023-12-04T02:53:04;98702.81;;;-4.41;92.29
21359;BME280;13506;50.852;20.632;2023-12-04T02:55:32;98705.34;;;-4.35;91.92
21359;BME280;13506;50.852;20.632;2023-12-04T02:58:02;98709.53;;;-4.29;92.25
21359;BME280;13506;50.852;20.632;2023-12-04T03:00:30;98705.28;;;-4.28;92.12
21359;BME280;13506;50.852;20.632;2023-12-04T03:02:58;98702.72;;;-4.27;91.69
21359;BME280;13506;50.852;20.632;2023-12-04T03:05:26;98706.09;;;-4.23;91.76
21359;BME280;13506;50.852;20.632;2023-12-04T03:07:55;98711.22;;;-4.25;91.68
21359;BME280;13506;50.852;20.632;2023-12-04T03:10:23;98712.00;;;-4.18;91.90
21359;BME280;13506;50.852;20.632;2023-12-04T03:12:51;98707.75;;;-4.16;91.66
21359;BME280;13506;50.852;20.632;2023-12-04T03:15:21;98716.25;;;-4.14;91.17
21359;BME280;13506;50.852;20.632;2023-12-04T03:17:49;98715.38;;;-4.12;91.19
21359;BME280;13506;50.852;20.632;2023-12-04T03:20:17;98713.69;;;-4.13;90.84
21359;BME280;13506;50.852;20.632;2023-12-04T03:22:45;98718.78;;;-4.11;90.80
21359;BME280;13506;50.852;20.632;2023-12-04T03:25:13;98720.47;;;-4.10;91.10
21359;BME280;13506;50.852;20.632;2023-12-04T03:27:41;98729.81;;;-4.07;91.34
21359;BME280;13506;50.852;20.632;2023-12-04T03:30:10;98729.81;;;-4.06;90.93
21359;BME280;13506;50.852;20.632;2023-12-04T03:32:39;98728.97;;;-4.05;90.87
21359;BME280;13506;50.852;20.632;2023-12-04T03:35:07;98729.81;;;-4.07;90.40
21359;BME280;13506;50.852;20.632;2023-12-04T03:37:37;98737.47;;;-4.04;90.37
21359;BME280;13506;50.852;20.632;2023-12-04T03:40:06;98729.84;;;-4.10;90.59
21359;BME280;13506;50.852;20.632;2023-12-04T03:42:34;98734.13;;;-4.14;90.38
21359;BME280;13506;50.852;20.632;2023-12-04T03:45:03;98732.41;;;-4.14;90.36
21359;BME280;13506;50.852;20.632;2023-12-04T03:47:31;98726.47;;;-4.13;91.11
21359;BME280;13506;50.852;20.632;2023-12-04T03:50:02;98729.91;;;-4.18;91.31
21359;BME280;13506;50.852;20.632;2023-12-04T03:52:30;98735.84;;;-4.16;91.51
21359;BME280;13506;50.852;20.632;2023-12-04T03:54:58;98735.88;;;-4.21;91.76
21359;BME280;13506;50.852;20.632;2023-12-04T03:57:26;98737.53;;;-4.10;91.15
21359;BME280;13506;50.852;20.632;2023-12-04T03:59:54;98735.84;;;-4.13;91.31
21359;BME280;13506;50.852;20.632;2023-12-04T04:02:22;98740.91;;;-4.10;91.78
21359;BME280;13506;50.852;20.632;2023-12-04T04:04:50;98747.78;;;-4.15;91.89
21359;BME280;13506;50.852;20.632;2023-12-04T04:07:20;98751.22;;;-4.19;91.91
21359;BME280;13506;50.852;20.632;2023-12-04T04:09:48;98753.75;;;-4.18;92.28
21359;BME280;13506;50.852;20.632;2023-12-04T04:12:16;98739.31;;;-4.23;92.17
21359;BME280;13506;50.852;20.632;2023-12-04T04:14:43;98757.97;;;-4.14;91.69
21359;BME280;13506;50.852;20.632;2023-12-04T04:17:11;98751.16;;;-4.13;92.43
21359;BME280;13506;50.852;20.632;2023-12-04T04:19:41;98751.16;;;-4.13;91.75
21359;BME280;13506;50.852;20.632;2023-12-04T04:22:09;98752.84;;;-4.12;92.78
21359;BME280;13506;50.852;20.632;2023-12-04T04:24:38;98754.56;;;-4.11;92.48
21359;BME280;13506;50.852;20.632;2023-12-04T04:27:06;98744.34;;;-4.11;92.40
21359;BME280;13506;50.852;20.632;2023-12-04T04:29:34;98746.06;;;-4.16;92.08
21359;BME280;13506;50.852;20.632;2023-12-04T04:32:03;98759.63;;;-4.09;91.88
21359;BME280;13506;50.852;20.632;2023-12-04T04:34:32;98759.66;;;-4.11;92.21
21359;BME280;13506;50.852;20.632;2023-12-04T04:37:00;98762.19;;;-4.06;92.22
21359;BME280;13506;50.852;20.632;2023-12-04T04:39:28;98768.13;;;-4.07;91.94
21359;BME280;13506;50.852;20.632;2023-12-04T04:41:57;98769.00;;;-4.07;92.07
21359;BME280;13506;50.852;20.632;2023-12-04T04:44:25;98778.41;;;-4.12;91.96
21359;BME280;13506;50.852;20.632;2023-12-04T04:46:53;98769.06;;;-4.15;92.50
21359;BME280;13506;50.852;20.632;2023-12-04T04:49:21;98775.00;;;-4.13;92.14
21359;BME280;13506;50.852;20.632;2023-12-04T04:51:49;98772.47;;;-4.16;91.69
21359;BME280;13506;50.852;20.632;2023-12-04T04:54:17;98780.13;;;-4.17;92.49
21359;BME280;13506;50.852;20.632;2023-12-04T04:56:46;98770.75;;;-4.18;92.69
21359;BME280;13506;50.852;20.632;2023-12-04T04:59:15;98777.59;;;-4.17;92.21
21359;BME280;13506;50.852;20.632;2023-12-04T05:01:43;98785.22;;;-4.14;92.00
21359;BME280;13506;50.852;20.632;2023-12-04T05:04:11;98768.22;;;-4.15;92.21
21359;BME280;13506;50.852;20.632;2023-12-04T05:06:39;98780.13;;;-4.20;92.46
21359;BME280;13506;50.852;20.632;2023-12-04T05:09:08;98773.31;;;-4.15;92.39
21359;BME280;13506;50.852;20.632;2023-12-04T05:11:36;98776.75;;;-4.18;92.14
21359;BME280;13506;50.852;20.632;2023-12-04T05:14:04;98776.75;;;-4.19;92.54
21359;BME280;13506;50.852;20.632;2023-12-04T05:16:33;98780.13;;;-4.20;92.10
21359;BME280;13506;50.852;20.632;2023-12-04T05:19:01;98785.25;;;-4.17;92.92
21359;BME280;13506;50.852;20.632;2023-12-04T05:21:29;98778.41;;;-4.14;92.82
21359;BME280;13506;50.852;20.632;2023-12-04T05:23:57;98779.22;;;-4.10;92.92
21359;BME280;13506;50.852;20.632;2023-12-04T05:26:25;98788.59;;;-4.06;92.02
21359;BME280;13506;50.852;20.632;2023-12-04T05:28:53;98785.19;;;-4.05;91.90
21359;BME280;13506;50.852;20.632;2023-12-04T05:31:21;98784.31;;;-4.01;92.23
21359;BME280;13506;50.852;20.632;2023-12-04T05:33:52;98786.81;;;-3.98;92.13
21359;BME280;13506;50.852;20.632;2023-12-04T05:36:20;98784.31;;;-4.01;91.58
21359;BME280;13506;50.852;20.632;2023-12-04T05:38:48;98786.03;;;-4.03;91.25
21359;BME280;13506;50.852;20.632;2023-12-04T05:41:16;98782.59;;;-4.03;91.75
21359;BME280;13506;50.852;20.632;2023-12-04T05:43:44;98781.75;;;-4.04;91.60
21359;BME280;13506;50.852;20.632;2023-12-04T05:46:12;98780.06;;;-4.05;91.12
21359;BME280;13506;50.852;20.632;2023-12-04T05:48:41;98780.06;;;-4.05;91.30
21359;BME280;13506;50.852;20.632;2023-12-04T05:51:10;98776.69;;;-4.07;91.58
21359;BME280;13506;50.852;20.632;2023-12-04T05:53:39;98784.34;;;-4.12;91.71
21359;BME280;13506;50.852;20.632;2023-12-04T05:56:08;98786.94;;;-4.13;91.88
21359;BME280;13506;50.852;20.632;2023-12-04T05:58:36;98784.34;;;-4.12;92.43
21359;BME280;13506;50.852;20.632;2023-12-04T06:01:05;98786.94;;;-4.13;92.04
21359;BME280;13506;50.852;20.632;2023-12-04T06:03:34;98781.81;;;-4.15;91.95
21359;BME280;13506;50.852;20.632;2023-12-04T06:06:02;98792.03;;;-4.13;92.25
21359;BME280;13506;50.852;20.632;2023-12-04T06:08:32;98795.44;;;-4.13;92.30
21359;BME280;13506;50.852;20.632;2023-12-04T06:10:59;98789.47;;;-4.12;91.77
21359;BME280;13506;50.852;20.632;2023-12-04T06:13:28;98786.06;;;-4.09;91.44
21359;BME280;13506;50.852;20.632;2023-12-04T06:15:55;98807.34;;;-4.07;91.35
21359;BME280;13506;50.852;20.632;2023-12-04T06:18:24;98805.59;;;-4.02;91.67
21359;BME280;13506;50.852;20.632;2023-12-04T06:20:51;98803.03;;;-4.00;90.89
21359;BME280;13506;50.852;20.632;2023-12-04T06:23:20;98801.28;;;-3.97;91.20
21359;BME280;13506;50.852;20.632;2023-12-04T06:25:50;98797.88;;;-3.99;91.08
21359;BME280;13506;50.852;20.632;2023-12-04T06:28:19;98804.75;;;-4.04;90.63
21359;BME280;13506;50.852;20.632;2023-12-04T06:30:47;98815.91;;;-4.19;90.41
21359;BME280;13506;50.852;20.632;2023-12-04T06:33:16;98815.13;;;-4.32;91.23
21359;BME280;13506;50.852;20.632;2023-12-04T06:35:45;98820.22;;;-4.33;91.86
21359;BME280;13506;50.852;20.632;2023-12-04T06:38:15;98821.09;;;-4.36;91.82
21359;BME280;13506;50.852;20.632;2023-12-04T06:40:43;98816.81;;;-4.29;92.48
21359;BME280;13506;50.852;20.632;2023-12-04T06:43:14;98822.72;;;-4.22;91.91
21359;BME280;13506;50.852;20.632;2023-12-04T06:45:43;98815.91;;;-4.17;92.04
21359;BME280;13506;50.852;20.632;2023-12-04T06:48:13;98809.88;;;-4.12;91.84
21359;BME280;13506;50.852;20.632;2023-12-04T06:50:42;98815.84;;;-4.05;92.17
21359;BME280;13506;50.852;20.632;2023-12-04T06:53:11;98813.22;;;-3.99;91.24
21359;BME280;13506;50.852;20.632;2023-12-04T06:55:39;98825.97;;;-3.93;91.87
21359;BME280;13506;50.852;20.632;2023-12-04T06:58:07;98819.13;;;-3.91;91.40
21359;BME280;13506;50.852;20.632;2023-12-04T07:00:36;98816.56;;;-3.87;91.45
21359;BME280;13506;50.852;20.632;2023-12-04T07:03:04;98813.16;;;-3.83;91.21
21359;BME280;13506;50.852;20.632;2023-12-04T07:05:32;98827.66;;;-3.85;89.64
21359;BME280;13506;50.852;20.632;2023-12-04T07:08:00;98822.56;;;-3.90;90.14
21359;BME280;13506;50.852;20.632;2023-12-04T07:10:29;98823.41;;;-3.89;89.60
21359;BME280;13506;50.852;20.632;2023-12-04T07:12:57;98830.16;;;-3.81;89.93
21359;BME280;13506;50.852;20.632;2023-12-04T07:15:25;98829.28;;;-3.75;89.50
21359;BME280;13506;50.852;20.632;2023-12-04T07:17:54;98825.84;;;-3.73;89.32
21359;BME280;13506;50.852;20.632;2023-12-04T07:20:22;98836.91;;;-3.74;89.58
21359;BME280;13506;50.852;20.632;2023-12-04T07:22:50;98839.50;;;-3.75;88.99
21359;BME280;13506;50.852;20.632;2023-12-04T07:25:18;98847.19;;;-3.77;87.80
21359;BME280;13506;50.852;20.632;2023-12-04T07:27:47;98837.84;;;-3.79;87.60
21359;BME280;13506;50.852;20.632;2023-12-04T07:30:15;98842.94;;;-3.79;87.28
21359;BME280;13506;50.852;20.632;2023-12-04T07:32:43;98842.91;;;-3.75;87.41
21359;BME280;13506;50.852;20.632;2023-12-04T07:35:13;98839.47;;;-3.69;87.88
21359;BME280;13506;50.852;20.632;2023-12-04T07:37:41;98845.38;;;-3.65;87.68
21359;BME280;13506;50.852;20.632;2023-12-04T07:40:10;98844.50;;;-3.60;87.05
21359;BME280;13506;50.852;20.632;2023-12-04T07:42:38;98841.94;;;-3.58;87.10
21359;BME280;13506;50.852;20.632;2023-12-04T07:45:07;98848.75;;;-3.54;87.81
21359;BME280;13506;50.852;20.632;2023-12-04T07:47:37;98848.66;;;-3.46;88.18
21359;BME280;13506;50.852;20.632;2023-12-04T07:50:06;98841.00;;;-3.43;86.51
21359;BME280;13506;50.852;20.632;2023-12-04T07:52:36;98838.41;;;-3.42;86.37
21359;BME280;13506;50.852;20.632;2023-12-04T07:55:04;98835.84;;;-3.42;84.57
21359;BME280;13506;50.852;20.632;2023-12-04T07:57:32;98839.22;;;-3.38;84.66
21359;BME280;13506;50.852;20.632;2023-12-04T08:00:00;98836.63;;;-3.34;84.30
21359;BME280;13506;50.852;20.632;2023-12-04T08:02:31;98832.34;;;-3.28;84.23
21359;BME280;13506;50.852;20.632;2023-12-04T08:04:59;98841.66;;;-3.23;83.12
21359;BME280;13506;50.852;20.632;2023-12-04T08:07:28;98843.41;;;-3.28;82.10
21359;BME280;13506;50.852;20.632;2023-12-04T08:09:57;98838.34;;;-3.33;82.03
21359;BME280;13506;50.852;20.632;2023-12-04T08:12:25;98840.88;;;-3.31;82.55
21359;BME280;13506;50.852;20.632;2023-12-04T08:14:53;98839.19;;;-3.32;82.37
21359;BME280;13506;50.852;20.632;2023-12-04T08:17:21;98835.75;;;-3.28;82.24
21359;BME280;13506;50.852;20.632;2023-12-04T08:19:50;98826.25;;;-3.17;82.12
21359;BME280;13506;50.852;20.632;2023-12-04T08:22:18;98830.38;;;-3.00;82.27
21359;BME280;13506;50.852;20.632;2023-12-04T08:24:46;98844.72;;;-2.84;81.36
21359;BME280;13506;50.852;20.632;2023-12-04T08:27:15;98839.25;;;-2.52;81.47
21359;BME280;13506;50.852;20.632;2023-12-04T08:29:43;98844.19;;;-1.73;81.60
21359;BME280;13506;50.852;20.632;2023-12-04T08:32:11;98835.50;;;-1.08;74.63
21359;BME280;13506;50.852;20.632;2023-12-04T08:34:39;98825.88;;;-0.52;71.38
21359;BME280;13506;50.852;20.632;2023-12-04T08:37:07;98827.38;;;0.40;70.61
21359;BME280;13506;50.852;20.632;2023-12-04T08:39:35;98838.56;;;1.73;67.86
21359;BME280;13506;50.852;20.632;2023-12-04T08:42:04;98848.22;;;3.56;62.27
21359;BME280;13506;50.852;20.632;2023-12-04T08:44:34;98846.19;;;5.40;58.33
21359;BME280;13506;50.852;20.632;2023-12-04T08:47:03;98854.50;;;6.99;50.01
21359;BME280;13506;50.852;20.632;2023-12-04T08:49:31;98854.41;;;8.18;46.23
21359;BME280;13506;50.852;20.632;2023-12-04T08:52:00;98865.28;;;9.48;43.99
21359;BME280;13506;50.852;20.632;2023-12-04T08:54:28;98851.63;;;10.44;41.77
21359;BME280;13506;50.852;20.632;2023-12-04T08:56:57;98849.59;;;11.54;41.37
21359;BME280;13506;50.852;20.632;2023-12-04T08:59:24;98858.56;;;12.75;38.33
21359;BME280;13506;50.852;20.632;2023-12-04T09:01:54;98861.53;;;13.88;36.21
21359;BME280;13506;50.852;20.632;2023-12-04T09:04:22;98860.88;;;14.30;32.00
21359;BME280;13506;50.852;20.632;2023-12-04T09:06:50;98872.63;;;13.92;32.42
21359;BME280;13506;50.852;20.632;2023-12-04T09:09:18;98871.53;;;13.83;32.94
21359;BME280;13506;50.852;20.632;2023-12-04T09:11:46;98870.66;;;13.37;32.50
21359;BME280;13506;50.852;20.632;2023-12-04T09:14:14;98872.28;;;13.27;33.29
21359;BME280;13506;50.852;20.632;2023-12-04T09:16:42;98879.03;;;13.43;31.68
21359;BME280;13506;50.852;20.632;2023-12-04T09:19:11;98880.41;;;13.71;33.86
21359;BME280;13506;50.852;20.632;2023-12-04T09:21:40;98871.66;;;14.04;31.72
21359;BME280;13506;50.852;20.632;2023-12-04T09:24:07;98881.06;;;13.15;31.59
21359;BME280;13506;50.852;20.632;2023-12-04T09:26:35;98868.88;;;11.79;32.81
21359;BME280;13506;50.852;20.632;2023-12-04T09:29:03;98875.19;;;10.71;33.93
21359;BME280;13506;50.852;20.632;2023-12-04T09:31:32;98865.84;;;9.53;36.05
21359;BME280;13506;50.852;20.632;2023-12-04T09:34:00;98872.16;;;9.21;36.34
21359;BME280;13506;50.852;20.632;2023-12-04T09:36:29;98869.31;;;9.09;37.07
21359;BME280;13506;50.852;20.632;2023-12-04T09:38:57;98863.91;;;9.12;36.55
21359;BME280;13506;50.852;20.632;2023-12-04T09:41:25;98864.94;;;9.69;37.26
21359;BME280;13506;50.852;20.632;2023-12-04T09:43:53;98855.88;;;10.59;36.67
21359;BME280;13506;50.852;20.632;2023-12-04T09:46:22;98863.00;;;11.50;34.98
21359;BME280;13506;50.852;20.632;2023-12-04T09:48:51;98859.84;;;12.46;33.65
21359;BME280;13506;50.852;20.632;2023-12-04T09:51:21;98856.13;;;13.21;32.95
21359;BME280;13506;50.852;20.632;2023-12-04T09:53:52;98850.84;;;14.12;32.35
21359;BME280;13506;50.852;20.632;2023-12-04T09:56:20;98857.38;;;14.95;30.52
21359;BME280;13506;50.852;20.632;2023-12-04T09:58:57;98855.81;;;15.46;29.83
21359;BME280;13506;50.852;20.632;2023-12-04T10:01:27;98859.66;;;15.94;28.78
21359;BME280;13506;50.852;20.632;2023-12-04T10:03:57;98858.50;;;16.17;28.44
21359;BME280;13506;50.852;20.632;2023-12-04T10:06:27;98853.56;;;15.93;27.79
21359;BME280;13506;50.852;20.632;2023-12-04T10:08:57;98851.63;;;15.95;28.13
21359;BME280;13506;50.852;20.632;2023-12-04T10:11:26;98850.41;;;16.09;27.61
21359;BME280;13506;50.852;20.632;2023-12-04T10:13:54;98853.66;;;16.22;27.66
21359;BME280;13506;50.852;20.632;2023-12-04T10:16:33;98850.00;;;16.14;26.87
21359;BME280;13506;50.852;20.632;2023-12-04T10:19:26;98857.50;;;16.09;27.17
21359;BME280;13506;50.852;20.632;2023-12-04T10:21:58;98843.44;;;16.29;27.25
21359;BME280;13506;50.852;20.632;2023-12-04T10:24:32;98846.66;;;16.62;27.83
21359;BME280;13506;50.852;20.632;2023-12-04T10:27:01;98840.66;;;16.40;26.81
21359;BME280;13506;50.852;20.632;2023-12-04T10:29:41;98824.00;;;16.40;26.97
21359;BME280;13506;50.852;20.632;2023-12-04T10:32:10;98832.63;;;16.71;26.93
21359;BME280;13506;50.852;20.632;2023-12-04T10:34:38;98835.69;;;16.96;26.22
21359;BME280;13506;50.852;20.632;2023-12-04T10:37:06;98820.66;;;17.06;26.50
21359;BME280;13506;50.852;20.632;2023-12-04T10:39:46;98828.41;;;17.37;26.19
21359;BME280;13506;50.852;20.632;2023-12-04T10:42:26;98822.53;;;17.62;26.00
21359;BME280;13506;50.852;20.632;2023-12-04T10:44:55;98825.53;;;17.77;25.54
21359;BME280;13506;50.852;20.632;2023-12-04T10:47:24;98819.75;;;18.01;25.61
21359;BME280;13506;50.852;20.632;2023-12-04T10:49:52;98807.97;;;18.14;26.04
21359;BME280;13506;50.852;20.632;2023-12-04T10:52:21;98812.81;;;18.18;25.51
21359;BME280;13506;50.852;20.632;2023-12-04T10:54:50;98808.41;;;18.09;25.08
21359;BME280;13506;50.852;20.632;2023-12-04T10:57:22;98807.50;;;17.53;25.50
21359;BME280;13506;50.852;20.632;2023-12-04T10:59:57;98803.84;;;16.49;26.12
21359;BME280;13506;50.852;20.632;2023-12-04T11:02:27;98803.25;;;15.12;26.58
21359;BME280;13506;50.852;20.632;2023-12-04T11:05:01;98799.47;;;13.86;28.56
21359;BME280;13506;50.852;20.632;2023-12-04T11:07:33;98799.19;;;12.50;29.54
21359;BME280;13506;50.852;20.632;2023-12-04T11:10:04;98795.84;;;11.62;32.00
21359;BME280;13506;50.852;20.632;2023-12-04T11:12:35;98784.09;;;10.63;32.99
21359;BME280;13506;50.852;20.632;2023-12-04T11:15:08;98788.06;;;9.87;34.00
21359;BME280;13506;50.852;20.632;2023-12-04T11:17:39;98783.84;;;9.27;35.62
21359;BME280;13506;50.852;20.632;2023-12-04T11:20:16;98779.91;;;8.61;35.72
21359;BME280;13506;50.852;20.632;2023-12-04T11:22:46;98782.63;;;7.80;36.83
21359;BME280;13506;50.852;20.632;2023-12-04T11:25:16;98783.09;;;7.22;38.40
21359;BME280;13506;50.852;20.632;2023-12-04T11:27:45;98793.13;;;6.60;40.15
21359;BME280;13506;50.852;20.632;2023-12-04T11:30:14;98786.03;;;6.08;40.73
21359;BME280;13506;50.852;20.632;2023-12-04T11:32:48;98778.63;;;5.62;41.62
21359;BME280;13506;50.852;20.632;2023-12-04T11:35:18;98788.59;;;5.32;42.82
21359;BME280;13506;50.852;20.632;2023-12-04T11:37:47;98787.00;;;5.09;43.56
21359;BME280;13506;50.852;20.632;2023-12-04T11:40:17;98783.94;;;4.36;43.31
21359;BME280;13506;50.852;20.632;2023-12-04T11:42:46;98788.63;;;4.27;44.41
21359;BME280;13506;50.852;20.632;2023-12-04T11:45:19;98782.66;;;4.24;45.97
21359;BME280;13506;50.852;20.632;2023-12-04T11:47:52;98770.91;;;4.16;45.23
21359;BME280;13506;50.852;20.632;2023-12-04T11:50:22;98771.66;;;4.19;46.10
21359;BME280;13506;50.852;20.632;2023-12-04T11:52:52;98779.78;;;4.10;46.20
21359;BME280;13506;50.852;20.632;2023-12-04T11:55:25;98776.16;;;3.92;45.88
21359;BME280;13506;50.852;20.632;2023-12-04T11:57:55;98756.78;;;3.80;46.16
21359;BME280;13506;50.852;20.632;2023-12-04T12:00:24;98762.75;;;3.82;46.48
21359;BME280;13506;50.852;20.632;2023-12-04T12:03:03;98758.16;;;3.89;47.12
21359;BME280;13506;50.852;20.632;2023-12-04T12:05:33;98759.22;;;3.83;47.26
21359;BME280;13506;50.852;20.632;2023-12-04T12:08:03;98761.50;;;3.69;47.36
21359;BME280;13506;50.852;20.632;2023-12-04T12:10:33;98759.50;;;3.54;46.94
21359;BME280;13506;50.852;20.632;2023-12-04T12:13:01;98751.56;;;3.35;47.95
21359;BME280;13506;50.852;20.632;2023-12-04T12:15:32;98759.84;;;3.21;48.02
21359;BME280;13506;50.852;20.632;2023-12-04T12:18:02;98749.72;;;3.15;48.90
21359;BME280;13506;50.852;20.632;2023-12-04T12:20:31;98747.03;;;3.16;48.64
21359;BME280;13506;50.852;20.632;2023-12-04T12:23:00;98744.25;;;3.22;49.45
21359;BME280;13506;50.852;20.632;2023-12-04T12:25:28;98750.53;;;3.15;49.21
21359;BME280;13506;50.852;20.632;2023-12-04T12:28:01;98757.75;;;3.06;48.79
21359;BME280;13506;50.852;20.632;2023-12-04T12:30:29;98753.81;;;2.95;48.82
21359;BME280;13506;50.852;20.632;2023-12-04T12:32:57;98755.59;;;2.93;49.21
21359;BME280;13506;50.852;20.632;2023-12-04T12:35:25;98759.94;;;2.93;49.54
21359;BME280;13506;50.852;20.632;2023-12-04T12:37:54;98757.50;;;2.88;48.53
21359;BME280;13506;50.852;20.632;2023-12-04T12:40:22;98746.38;;;2.86;49.40
21359;BME280;13506;50.852;20.632;2023-12-04T12:42:51;98740.69;;;2.76;49.21
21359;BME280;13506;50.852;20.632;2023-12-04T12:45:20;98737.00;;;2.58;49.79
21359;BME280;13506;50.852;20.632;2023-12-04T12:47:48;98741.94;;;2.38;50.04
21359;BME280;13506;50.852;20.632;2023-12-04T12:50:18;98735.72;;;2.17;50.77
21359;BME280;13506;50.852;20.632;2023-12-04T12:52:46;98728.63;;;1.97;50.88
21359;BME280;13506;50.852;20.632;2023-12-04T12:55:23;98725.19;;;1.68;52.13
21359;BME280;13506;50.852;20.632;2023-12-04T12:57:52;98720.75;;;1.73;51.81
21359;BME280;13506;50.852;20.632;2023-12-04T13:00:21;98719.47;;;1.87;52.29
21359;BME280;13506;50.852;20.632;2023-12-04T13:02:52;98702.63;;;1.47;53.81